SUN1FF LEPA-EGGD
Flight info
| Callsign | SUN1FF |
|---|---|
| Flight time | 1h 51m |
| Altitude | 40000 |
| Route | DRAGO DCT PAPOS DCT UMURE DCT XIKEN DCT KARES DCT ARBEK DCT REBUL DCT USKAR DCT MOPAS DCT GIROM DCT GONUP DCT MANAK DCT MUREL DCT NOZHU DCT SHIRI DCT TOJAQ |
| Aircraft | B772/H-SDE2E3FGHIJ5LORVWXY/LB1D1 |
Departure
| Time | 2026-05-03 20:36 |
|---|---|
| Airport | Palma de Mallorca Airport (LEPA) |
Arrival
| Time | 2026-05-03 22:27 |
|---|---|
| Airport | Bristol Airport (EGGD) |
| Time | Latitude | Longitude | Altitude | Speed | Heading |
|---|---|---|---|---|---|
| 2026-05-03 20:15 | 39.55028 | 2.72736 | 34 ft | 0 kts | 138° |
| 2026-05-03 20:24 | 39.55037 | 2.72725 | 34 ft | 3 kts | 138° |
| 2026-05-03 20:24 | 39.55052 | 2.72708 | 32 ft | 3 kts | 138° |
| 2026-05-03 20:24 | 39.55065 | 2.72690 | 33 ft | 3 kts | 114° |
| 2026-05-03 20:25 | 39.55069 | 2.72667 | 34 ft | 3 kts | 79° |
| 2026-05-03 20:25 | 39.55064 | 2.72644 | 32 ft | 2 kts | 59° |
| 2026-05-03 20:25 | 39.55056 | 2.72628 | 32 ft | 3 kts | 58° |
| 2026-05-03 20:25 | 39.55047 | 2.72610 | 34 ft | 1 kts | 58° |
| 2026-05-03 20:26 | 39.55047 | 2.72608 | 32 ft | 0 kts | 58° |
| 2026-05-03 20:28 | 39.55047 | 2.72610 | 34 ft | 2 kts | 58° |
| 2026-05-03 20:28 | 39.55076 | 2.72670 | 34 ft | 14 kts | 58° |
| 2026-05-03 20:28 | 39.55134 | 2.72791 | 34 ft | 17 kts | 58° |
| 2026-05-03 20:29 | 39.55195 | 2.72919 | 34 ft | 17 kts | 58° |
| 2026-05-03 20:29 | 39.55255 | 2.73046 | 34 ft | 17 kts | 58° |
| 2026-05-03 20:29 | 39.55316 | 2.73173 | 34 ft | 17 kts | 59° |
| 2026-05-03 20:29 | 39.55377 | 2.73301 | 34 ft | 17 kts | 58° |
| 2026-05-03 20:30 | 39.55438 | 2.73428 | 34 ft | 17 kts | 58° |
| 2026-05-03 20:30 | 39.55497 | 2.73548 | 34 ft | 15 kts | 53° |
| 2026-05-03 20:30 | 39.55580 | 2.73534 | 34 ft | 13 kts | 332° |
| 2026-05-03 20:30 | 39.55663 | 2.73523 | 34 ft | 13 kts | 39° |
| 2026-05-03 20:31 | 39.55717 | 2.73631 | 34 ft | 20 kts | 59° |
| 2026-05-03 20:31 | 39.55817 | 2.73840 | 34 ft | 29 kts | 58° |
| 2026-05-03 20:31 | 39.55921 | 2.74060 | 34 ft | 28 kts | 58° |
| 2026-05-03 20:31 | 39.56020 | 2.74232 | 34 ft | 23 kts | 38° |
| 2026-05-03 20:32 | 39.56121 | 2.74324 | 34 ft | 8 kts | 34° |
| 2026-05-03 20:32 | 39.56131 | 2.74333 | 34 ft | 0 kts | 34° |
| 2026-05-03 20:32 | 39.56132 | 2.74333 | 34 ft | 0 kts | 34° |
| 2026-05-03 20:34 | 39.56132 | 2.74334 | 34 ft | 2 kts | 34° |
| 2026-05-03 20:34 | 39.56204 | 2.74362 | 34 ft | 14 kts | 348° |
| 2026-05-03 20:35 | 39.56233 | 2.74275 | 34 ft | 7 kts | 240° |
| 2026-05-03 20:35 | 39.56229 | 2.74266 | 34 ft | 0 kts | 240° |
| 2026-05-03 20:35 | 39.56126 | 2.74043 | 34 ft | 69 kts | 238° |
| 2026-05-03 20:36 | 39.55707 | 2.73157 | 36 ft | 158 kts | 239° |
| 2026-05-03 20:36 | 39.55066 | 2.71782 | 616 ft | 183 kts | 238° |
| 2026-05-03 20:36 | 39.54411 | 2.70412 | 1878 ft | 173 kts | 234° |
| 2026-05-03 20:36 | 39.53741 | 2.69077 | 2737 ft | 188 kts | 234° |
| 2026-05-03 20:37 | 39.52983 | 2.67594 | 3282 ft | 203 kts | 235° |
| 2026-05-03 20:37 | 39.52184 | 2.66027 | 3997 ft | 209 kts | 236° |
| 2026-05-03 20:37 | 39.51385 | 2.64458 | 4837 ft | 211 kts | 236° |
| 2026-05-03 20:37 | 39.50578 | 2.62874 | 5592 ft | 210 kts | 237° |
| 2026-05-03 20:38 | 39.49767 | 2.61283 | 5999 ft | 214 kts | 237° |
| 2026-05-03 20:38 | 39.48941 | 2.59663 | 5999 ft | 215 kts | 237° |
| 2026-05-03 20:38 | 39.48119 | 2.58050 | 6263 ft | 213 kts | 237° |
| 2026-05-03 20:38 | 39.47303 | 2.56453 | 7050 ft | 212 kts | 237° |
| 2026-05-03 20:39 | 39.46488 | 2.54860 | 7801 ft | 213 kts | 237° |
| 2026-05-03 20:39 | 39.45668 | 2.53256 | 8534 ft | 214 kts | 238° |
| 2026-05-03 20:39 | 39.45069 | 2.51468 | 8889 ft | 230 kts | 262° |
| 2026-05-03 20:39 | 39.45337 | 2.49323 | 9104 ft | 259 kts | 292° |
| 2026-05-03 20:40 | 39.46464 | 2.47417 | 9628 ft | 276 kts | 313° |
| 2026-05-03 20:40 | 39.48019 | 2.45886 | 10206 ft | 286 kts | 320° |
| 2026-05-03 20:40 | 39.49718 | 2.44375 | 10415 ft | 309 kts | 320° |
| 2026-05-03 20:40 | 39.51545 | 2.42722 | 10612 ft | 331 kts | 320° |
| 2026-05-03 20:41 | 39.53453 | 2.40959 | 11190 ft | 342 kts | 319° |
| 2026-05-03 20:41 | 39.55388 | 2.39103 | 11959 ft | 348 kts | 315° |
| 2026-05-03 20:41 | 39.57158 | 2.36960 | 12921 ft | 350 kts | 309° |
| 2026-05-03 20:41 | 39.58831 | 2.34650 | 13949 ft | 353 kts | 307° |
| 2026-05-03 20:42 | 39.60495 | 2.32283 | 14832 ft | 358 kts | 307° |
| 2026-05-03 20:42 | 39.62184 | 2.29883 | 15665 ft | 364 kts | 308° |
| 2026-05-03 20:42 | 39.63917 | 2.27447 | 16489 ft | 370 kts | 308° |
| 2026-05-03 20:42 | 39.65683 | 2.24991 | 17312 ft | 375 kts | 308° |
| 2026-05-03 20:43 | 39.67479 | 2.22511 | 18134 ft | 380 kts | 308° |
| 2026-05-03 20:43 | 39.69305 | 2.20001 | 18840 ft | 384 kts | 308° |
| 2026-05-03 20:43 | 39.71152 | 2.17468 | 19520 ft | 389 kts | 309° |
| 2026-05-03 20:43 | 39.73027 | 2.14899 | 20173 ft | 393 kts | 309° |
| 2026-05-03 20:44 | 39.74920 | 2.12303 | 20837 ft | 398 kts | 309° |
| 2026-05-03 20:44 | 39.76831 | 2.09682 | 21476 ft | 402 kts | 309° |
| 2026-05-03 20:44 | 39.78768 | 2.07023 | 22014 ft | 408 kts | 309° |
| 2026-05-03 20:44 | 39.80728 | 2.04328 | 22009 ft | 410 kts | 309° |
| 2026-05-03 20:45 | 39.82687 | 2.01637 | 22015 ft | 409 kts | 309° |
| 2026-05-03 20:45 | 39.84653 | 1.98931 | 22289 ft | 415 kts | 309° |
| 2026-05-03 20:45 | 39.86640 | 1.96191 | 22969 ft | 417 kts | 309° |
| 2026-05-03 20:45 | 39.88635 | 1.93439 | 23673 ft | 419 kts | 309° |
| 2026-05-03 20:46 | 39.90638 | 1.90672 | 24254 ft | 421 kts | 309° |
| 2026-05-03 20:46 | 39.92649 | 1.87895 | 24907 ft | 421 kts | 309° |
| 2026-05-03 20:46 | 39.94664 | 1.85108 | 25495 ft | 423 kts | 309° |
| 2026-05-03 20:46 | 39.96688 | 1.82304 | 26024 ft | 427 kts | 309° |
| 2026-05-03 20:47 | 39.98767 | 1.79518 | 26498 ft | 431 kts | 314° |
| 2026-05-03 20:47 | 40.01245 | 1.77220 | 26922 ft | 445 kts | 327° |
| 2026-05-03 20:47 | 40.04114 | 1.75593 | 27440 ft | 455 kts | 337° |
| 2026-05-03 20:47 | 40.07206 | 1.74592 | 27936 ft | 460 kts | 344° |
| 2026-05-03 20:48 | 40.10362 | 1.73780 | 28413 ft | 465 kts | 345° |
| 2026-05-03 20:48 | 40.13550 | 1.72976 | 28911 ft | 468 kts | 345° |
| 2026-05-03 20:48 | 40.16759 | 1.72165 | 29414 ft | 471 kts | 345° |
| 2026-05-03 20:48 | 40.19977 | 1.71339 | 29902 ft | 474 kts | 344° |
| 2026-05-03 20:49 | 40.23218 | 1.70493 | 30340 ft | 476 kts | 344° |
| 2026-05-03 20:49 | 40.26485 | 1.69628 | 30713 ft | 480 kts | 345° |
| 2026-05-03 20:49 | 40.29769 | 1.68752 | 31034 ft | 484 kts | 345° |
| 2026-05-03 20:49 | 40.33088 | 1.67862 | 31383 ft | 487 kts | 345° |
| 2026-05-03 20:50 | 40.36415 | 1.66967 | 31745 ft | 489 kts | 344° |
| 2026-05-03 20:50 | 40.39756 | 1.66069 | 32091 ft | 492 kts | 344° |
| 2026-05-03 20:50 | 40.43114 | 1.65164 | 32401 ft | 494 kts | 344° |
| 2026-05-03 20:50 | 40.46486 | 1.64255 | 32699 ft | 496 kts | 344° |
| 2026-05-03 20:51 | 40.49884 | 1.63339 | 32988 ft | 499 kts | 344° |
| 2026-05-03 20:51 | 40.53283 | 1.62421 | 33259 ft | 501 kts | 344° |
| 2026-05-03 20:51 | 40.56703 | 1.61498 | 33514 ft | 503 kts | 344° |
| 2026-05-03 20:51 | 40.60135 | 1.60570 | 33776 ft | 504 kts | 344° |
| 2026-05-03 20:52 | 40.63570 | 1.59641 | 34097 ft | 503 kts | 344° |
| 2026-05-03 20:52 | 40.66998 | 1.58713 | 34432 ft | 502 kts | 344° |
| 2026-05-03 20:52 | 40.70408 | 1.57790 | 34771 ft | 500 kts | 344° |
| 2026-05-03 20:52 | 40.73818 | 1.56865 | 35101 ft | 499 kts | 343° |
| 2026-05-03 20:53 | 40.77212 | 1.55942 | 35414 ft | 499 kts | 343° |
| 2026-05-03 20:53 | 40.80613 | 1.55016 | 35709 ft | 498 kts | 343° |
| 2026-05-03 20:53 | 40.84000 | 1.54093 | 36023 ft | 497 kts | 343° |
| 2026-05-03 20:53 | 40.87384 | 1.53170 | 36336 ft | 496 kts | 343° |
| 2026-05-03 20:54 | 40.90757 | 1.52250 | 36734 ft | 494 kts | 343° |
| 2026-05-03 20:54 | 40.97483 | 1.50411 | 37361 ft | 493 kts | 343° |
| 2026-05-03 20:54 | 41.00836 | 1.49492 | 37656 ft | 492 kts | 342° |
| 2026-05-03 20:55 | 41.04186 | 1.48574 | 37945 ft | 491 kts | 342° |
| 2026-05-03 20:55 | 41.07523 | 1.47658 | 38244 ft | 490 kts | 342° |
| 2026-05-03 20:55 | 41.10859 | 1.46742 | 38537 ft | 489 kts | 342° |
| 2026-05-03 20:55 | 41.14192 | 1.45825 | 38784 ft | 488 kts | 342° |
| 2026-05-03 20:56 | 41.17518 | 1.44909 | 38980 ft | 488 kts | 343° |
| 2026-05-03 20:56 | 41.20844 | 1.43993 | 39153 ft | 488 kts | 343° |
| 2026-05-03 20:56 | 41.24170 | 1.43074 | 39302 ft | 489 kts | 343° |
| 2026-05-03 20:56 | 41.27502 | 1.42154 | 39483 ft | 489 kts | 343° |
| 2026-05-03 20:57 | 41.30835 | 1.41232 | 39652 ft | 489 kts | 343° |
| 2026-05-03 20:57 | 41.34161 | 1.40312 | 39840 ft | 489 kts | 343° |
| 2026-05-03 20:57 | 41.40856 | 1.38454 | 39981 ft | 494 kts | 343° |
| 2026-05-03 20:58 | 41.47596 | 1.36581 | 40016 ft | 495 kts | 343° |
| 2026-05-03 20:58 | 41.54329 | 1.34710 | 40029 ft | 493 kts | 343° |
| 2026-05-03 20:59 | 41.61046 | 1.32837 | 40026 ft | 492 kts | 343° |
| 2026-05-03 20:59 | 41.67746 | 1.30965 | 40021 ft | 491 kts | 343° |
| 2026-05-03 21:00 | 41.72174 | 1.29726 | 40014 ft | 491 kts | 343° |
| 2026-05-03 21:00 | 41.81078 | 1.27226 | 40012 ft | 491 kts | 343° |
| 2026-05-03 21:01 | 41.87764 | 1.25344 | 39997 ft | 491 kts | 343° |
| 2026-05-03 21:01 | 41.94458 | 1.23457 | 39995 ft | 492 kts | 343° |
| 2026-05-03 21:02 | 42.01152 | 1.21565 | 40001 ft | 492 kts | 343° |
| 2026-05-03 21:02 | 42.07851 | 1.19669 | 40002 ft | 493 kts | 343° |
| 2026-05-03 21:03 | 42.14571 | 1.17762 | 40012 ft | 494 kts | 343° |
| 2026-05-03 21:03 | 42.21295 | 1.15850 | 40042 ft | 494 kts | 344° |
| 2026-05-03 21:04 | 42.28011 | 1.13936 | 40049 ft | 494 kts | 343° |
| 2026-05-03 21:04 | 42.34728 | 1.12018 | 40039 ft | 493 kts | 343° |
| 2026-05-03 21:05 | 42.41441 | 1.10097 | 40044 ft | 492 kts | 343° |
| 2026-05-03 21:05 | 42.47011 | 1.08498 | 40039 ft | 492 kts | 343° |
| 2026-05-03 21:06 | 42.53722 | 1.06568 | 40011 ft | 493 kts | 343° |
| 2026-05-03 21:06 | 42.60425 | 1.04640 | 40025 ft | 493 kts | 343° |
| 2026-05-03 21:07 | 42.67135 | 1.02701 | 40025 ft | 493 kts | 343° |
| 2026-05-03 21:07 | 42.73856 | 1.00758 | 40017 ft | 494 kts | 343° |
| 2026-05-03 21:08 | 42.80571 | 0.98752 | 39976 ft | 494 kts | 342° |
| 2026-05-03 21:08 | 42.87211 | 0.96453 | 39982 ft | 492 kts | 341° |
| 2026-05-03 21:09 | 42.93841 | 0.94102 | 39984 ft | 493 kts | 341° |
| 2026-05-03 21:09 | 43.00490 | 0.91782 | 39995 ft | 493 kts | 341° |
| 2026-05-03 21:10 | 43.07152 | 0.89478 | 39977 ft | 495 kts | 341° |
| 2026-05-03 21:10 | 43.13830 | 0.87166 | 39964 ft | 496 kts | 341° |
| 2026-05-03 21:11 | 43.20524 | 0.84841 | 39961 ft | 496 kts | 341° |
| 2026-05-03 21:11 | 43.27217 | 0.82508 | 39969 ft | 497 kts | 341° |
| 2026-05-03 21:12 | 43.33926 | 0.80166 | 39965 ft | 497 kts | 341° |
| 2026-05-03 21:12 | 43.40633 | 0.77819 | 39966 ft | 497 kts | 341° |
| 2026-05-03 21:13 | 43.47289 | 0.75293 | 39967 ft | 495 kts | 336° |
| 2026-05-03 21:13 | 43.53568 | 0.71607 | 39971 ft | 488 kts | 329° |
| 2026-05-03 21:14 | 43.59656 | 0.67618 | 39966 ft | 487 kts | 329° |
| 2026-05-03 21:14 | 43.65824 | 0.63576 | 39973 ft | 488 kts | 329° |
| 2026-05-03 21:15 | 43.71928 | 0.59615 | 39962 ft | 488 kts | 330° |
| 2026-05-03 21:15 | 43.78067 | 0.55646 | 39966 ft | 487 kts | 330° |
| 2026-05-03 21:16 | 43.84209 | 0.51671 | 39974 ft | 487 kts | 330° |
| 2026-05-03 21:16 | 43.90355 | 0.47682 | 39969 ft | 488 kts | 330° |
| 2026-05-03 21:17 | 43.95467 | 0.44355 | 39961 ft | 489 kts | 329° |
| 2026-05-03 21:17 | 44.02663 | 0.39660 | 39966 ft | 489 kts | 329° |
| 2026-05-03 21:18 | 44.08828 | 0.35628 | 39978 ft | 490 kts | 329° |
| 2026-05-03 21:18 | 44.15002 | 0.31583 | 39971 ft | 491 kts | 329° |
| 2026-05-03 21:19 | 44.21178 | 0.27526 | 39961 ft | 491 kts | 329° |
| 2026-05-03 21:19 | 44.27350 | 0.23462 | 39971 ft | 491 kts | 329° |
| 2026-05-03 21:20 | 44.33530 | 0.19383 | 39957 ft | 491 kts | 329° |
| 2026-05-03 21:20 | 44.39707 | 0.15297 | 39962 ft | 491 kts | 329° |
| 2026-05-03 21:21 | 44.45876 | 0.11206 | 39960 ft | 491 kts | 329° |
| 2026-05-03 21:21 | 44.52055 | 0.07098 | 39977 ft | 491 kts | 329° |
| 2026-05-03 21:22 | 44.58228 | 0.02986 | 39972 ft | 492 kts | 329° |
| 2026-05-03 21:22 | 44.64419 | -0.01150 | 39976 ft | 493 kts | 330° |
| 2026-05-03 21:23 | 44.70583 | -0.05278 | 39966 ft | 495 kts | 330° |
| 2026-05-03 21:23 | 44.76845 | -0.09479 | 39973 ft | 496 kts | 330° |
| 2026-05-03 21:24 | 44.83087 | -0.13677 | 39969 ft | 498 kts | 330° |
| 2026-05-03 21:24 | 44.89293 | -0.17861 | 39973 ft | 498 kts | 330° |
| 2026-05-03 21:25 | 44.95551 | -0.22090 | 39970 ft | 499 kts | 330° |
| 2026-05-03 21:25 | 45.01810 | -0.26331 | 39985 ft | 499 kts | 330° |
| 2026-05-03 21:26 | 45.08056 | -0.30573 | 39969 ft | 498 kts | 330° |
| 2026-05-03 21:26 | 45.14310 | -0.34830 | 39965 ft | 498 kts | 330° |
| 2026-05-03 21:27 | 45.20543 | -0.39084 | 39982 ft | 497 kts | 330° |
| 2026-05-03 21:27 | 45.26776 | -0.43349 | 39967 ft | 497 kts | 330° |
| 2026-05-03 21:28 | 45.32999 | -0.47617 | 39969 ft | 497 kts | 330° |
| 2026-05-03 21:28 | 45.39230 | -0.51901 | 39968 ft | 497 kts | 329° |
| 2026-05-03 21:29 | 45.45464 | -0.56198 | 39968 ft | 498 kts | 329° |
| 2026-05-03 21:29 | 45.51696 | -0.60504 | 39969 ft | 498 kts | 329° |
| 2026-05-03 21:30 | 45.57933 | -0.64823 | 39984 ft | 498 kts | 329° |
| 2026-05-03 21:30 | 45.64178 | -0.69160 | 39970 ft | 499 kts | 329° |
| 2026-05-03 21:31 | 45.70429 | -0.73512 | 39966 ft | 500 kts | 329° |
| 2026-05-03 21:31 | 45.76684 | -0.77877 | 39962 ft | 500 kts | 329° |
| 2026-05-03 21:32 | 45.82946 | -0.82260 | 39965 ft | 501 kts | 330° |
| 2026-05-03 21:32 | 45.89170 | -0.86624 | 39960 ft | 501 kts | 330° |
| 2026-05-03 21:33 | 45.95438 | -0.91030 | 39962 ft | 502 kts | 329° |
| 2026-05-03 21:33 | 46.01705 | -0.95448 | 39964 ft | 502 kts | 330° |
| 2026-05-03 21:34 | 46.07959 | -0.99868 | 39964 ft | 502 kts | 329° |
| 2026-05-03 21:34 | 46.14233 | -1.04313 | 39964 ft | 502 kts | 329° |
| 2026-05-03 21:35 | 46.20507 | -1.08769 | 39976 ft | 503 kts | 330° |
| 2026-05-03 21:35 | 46.26774 | -1.13232 | 39965 ft | 502 kts | 329° |
| 2026-05-03 21:36 | 46.33039 | -1.17705 | 39965 ft | 502 kts | 329° |
| 2026-05-03 21:36 | 46.39300 | -1.22187 | 39979 ft | 502 kts | 330° |
| 2026-05-03 21:37 | 46.45552 | -1.26674 | 39978 ft | 501 kts | 330° |
| 2026-05-03 21:37 | 46.51798 | -1.31167 | 39988 ft | 501 kts | 330° |
| 2026-05-03 21:38 | 46.58040 | -1.35670 | 39994 ft | 501 kts | 330° |
| 2026-05-03 21:38 | 46.64283 | -1.40186 | 39992 ft | 501 kts | 329° |
| 2026-05-03 21:39 | 46.70519 | -1.44707 | 39995 ft | 500 kts | 329° |
| 2026-05-03 21:39 | 46.76746 | -1.49234 | 39993 ft | 500 kts | 329° |
| 2026-05-03 21:40 | 46.82959 | -1.53763 | 39986 ft | 500 kts | 329° |
| 2026-05-03 21:40 | 46.89190 | -1.58316 | 39977 ft | 500 kts | 329° |
| 2026-05-03 21:41 | 46.95413 | -1.62876 | 39974 ft | 501 kts | 329° |
| 2026-05-03 21:41 | 47.01628 | -1.67442 | 39975 ft | 501 kts | 329° |
| 2026-05-03 21:42 | 47.07864 | -1.72035 | 39964 ft | 502 kts | 329° |
| 2026-05-03 21:42 | 47.14066 | -1.76615 | 39967 ft | 502 kts | 329° |
| 2026-05-03 21:43 | 47.20287 | -1.81221 | 39975 ft | 502 kts | 329° |
| 2026-05-03 21:43 | 47.26508 | -1.85840 | 39964 ft | 503 kts | 329° |
| 2026-05-03 21:44 | 47.32766 | -1.90504 | 39963 ft | 503 kts | 329° |
| 2026-05-03 21:44 | 47.39007 | -1.95167 | 39972 ft | 503 kts | 329° |
| 2026-05-03 21:45 | 47.45242 | -1.99834 | 39965 ft | 502 kts | 329° |
| 2026-05-03 21:45 | 47.51475 | -2.04510 | 39965 ft | 502 kts | 329° |
| 2026-05-03 21:46 | 47.57702 | -2.09195 | 39983 ft | 502 kts | 330° |
| 2026-05-03 21:46 | 47.63930 | -2.13893 | 39969 ft | 502 kts | 330° |
| 2026-05-03 21:47 | 47.70147 | -2.18595 | 39963 ft | 501 kts | 330° |
| 2026-05-03 21:47 | 47.76358 | -2.23306 | 39959 ft | 501 kts | 330° |
| 2026-05-03 21:48 | 47.82561 | -2.28023 | 39968 ft | 501 kts | 330° |
| 2026-05-03 21:48 | 47.88766 | -2.32754 | 39964 ft | 501 kts | 330° |
| 2026-05-03 21:49 | 47.94960 | -2.37490 | 39962 ft | 500 kts | 330° |
| 2026-05-03 21:49 | 48.01147 | -2.42233 | 39967 ft | 500 kts | 330° |
| 2026-05-03 21:50 | 48.07330 | -2.46987 | 39969 ft | 500 kts | 330° |
| 2026-05-03 21:50 | 48.13515 | -2.51754 | 39964 ft | 500 kts | 330° |
| 2026-05-03 21:51 | 48.19650 | -2.56496 | 39987 ft | 500 kts | 330° |
| 2026-05-03 21:51 | 48.25834 | -2.61289 | 39961 ft | 500 kts | 330° |
| 2026-05-03 21:52 | 48.32014 | -2.66092 | 39965 ft | 500 kts | 330° |
| 2026-05-03 21:52 | 48.38195 | -2.70910 | 39963 ft | 500 kts | 330° |
| 2026-05-03 21:53 | 48.44376 | -2.75739 | 39969 ft | 500 kts | 330° |
| 2026-05-03 21:53 | 48.50551 | -2.80578 | 39961 ft | 500 kts | 330° |
| 2026-05-03 21:54 | 48.55725 | -2.84643 | 39967 ft | 500 kts | 330° |
| 2026-05-03 21:54 | 48.61896 | -2.89504 | 39972 ft | 500 kts | 330° |
| 2026-05-03 21:55 | 48.68021 | -2.94341 | 39967 ft | 500 kts | 330° |
| 2026-05-03 21:55 | 48.74195 | -2.99231 | 39961 ft | 500 kts | 330° |
| 2026-05-03 21:56 | 48.80360 | -3.04128 | 39960 ft | 500 kts | 330° |
| 2026-05-03 21:56 | 48.86527 | -3.09039 | 39969 ft | 501 kts | 330° |
| 2026-05-03 21:57 | 48.92694 | -3.13965 | 39961 ft | 501 kts | 330° |
| 2026-05-03 21:57 | 48.98875 | -3.18915 | 39960 ft | 500 kts | 330° |
| 2026-05-03 21:58 | 49.05017 | -3.23848 | 39959 ft | 500 kts | 330° |
| 2026-05-03 21:58 | 49.11169 | -3.28804 | 39957 ft | 500 kts | 330° |
| 2026-05-03 21:59 | 49.17319 | -3.33771 | 39953 ft | 500 kts | 330° |
| 2026-05-03 21:59 | 49.23470 | -3.38754 | 39953 ft | 500 kts | 330° |
| 2026-05-03 22:00 | 49.29617 | -3.43747 | 39959 ft | 500 kts | 330° |
| 2026-05-03 22:00 | 49.35759 | -3.48751 | 39956 ft | 500 kts | 330° |
| 2026-05-03 22:01 | 49.41897 | -3.53766 | 39952 ft | 500 kts | 330° |
| 2026-05-03 22:01 | 49.48026 | -3.58788 | 39962 ft | 500 kts | 330° |
| 2026-05-03 22:02 | 49.54167 | -3.63835 | 39946 ft | 500 kts | 330° |
| 2026-05-03 22:02 | 49.60295 | -3.68885 | 39948 ft | 499 kts | 330° |
| 2026-05-03 22:03 | 49.66479 | -3.73757 | 39939 ft | 501 kts | 338° |
| 2026-05-03 22:03 | 49.73286 | -3.76035 | 39954 ft | 504 kts | 355° |
| 2026-05-03 22:04 | 49.80295 | -3.75505 | 39946 ft | 505 kts | 4° |
| 2026-05-03 22:04 | 49.87299 | -3.74489 | 39942 ft | 506 kts | 4° |
| 2026-05-03 22:05 | 49.94314 | -3.73558 | 39943 ft | 506 kts | 4° |
| 2026-05-03 22:05 | 50.01330 | -3.72711 | 39940 ft | 506 kts | 3° |
| 2026-05-03 22:06 | 50.08354 | -3.71880 | 39940 ft | 506 kts | 3° |
| 2026-05-03 22:06 | 50.15376 | -3.71041 | 39758 ft | 504 kts | 3° |
| 2026-05-03 22:07 | 50.18786 | -3.70628 | 39011 ft | 482 kts | 3° |
| 2026-05-03 22:07 | 50.22128 | -3.70224 | 37143 ft | 483 kts | 3° |
| 2026-05-03 22:07 | 50.25479 | -3.69820 | 36245 ft | 487 kts | 3° |
| 2026-05-03 22:07 | 50.28863 | -3.69411 | 35300 ft | 490 kts | 4° |
| 2026-05-03 22:08 | 50.32283 | -3.68997 | 34307 ft | 495 kts | 4° |
| 2026-05-03 22:08 | 50.35734 | -3.68578 | 33105 ft | 500 kts | 3° |
| 2026-05-03 22:08 | 50.39259 | -3.68150 | 31974 ft | 502 kts | 4° |
| 2026-05-03 22:08 | 50.42693 | -3.67719 | 31140 ft | 499 kts | 5° |
| 2026-05-03 22:09 | 50.46173 | -3.67102 | 30369 ft | 494 kts | 7° |
| 2026-05-03 22:09 | 50.49515 | -3.66419 | 29562 ft | 489 kts | 7° |
| 2026-05-03 22:09 | 50.52872 | -3.65741 | 28730 ft | 484 kts | 6° |
| 2026-05-03 22:10 | 50.59482 | -3.64456 | 27215 ft | 473 kts | 6° |
| 2026-05-03 22:10 | 50.62738 | -3.63835 | 26463 ft | 468 kts | 6° |
| 2026-05-03 22:10 | 50.65954 | -3.63222 | 25713 ft | 464 kts | 6° |
| 2026-05-03 22:10 | 50.69140 | -3.62613 | 24977 ft | 460 kts | 6° |
| 2026-05-03 22:11 | 50.72303 | -3.61991 | 24243 ft | 455 kts | 8° |
| 2026-05-03 22:11 | 50.75379 | -3.60888 | 23517 ft | 453 kts | 18° |
| 2026-05-03 22:11 | 50.78282 | -3.58987 | 22680 ft | 450 kts | 28° |
| 2026-05-03 22:11 | 50.80907 | -3.56363 | 21988 ft | 444 kts | 39° |
| 2026-05-03 22:12 | 50.83185 | -3.53166 | 21418 ft | 435 kts | 46° |
| 2026-05-03 22:12 | 50.85266 | -3.49733 | 20901 ft | 431 kts | 49° |
| 2026-05-03 22:12 | 50.87289 | -3.46228 | 20467 ft | 431 kts | 49° |
| 2026-05-03 22:12 | 50.89291 | -3.42708 | 20153 ft | 429 kts | 49° |
| 2026-05-03 22:13 | 50.91281 | -3.39195 | 19896 ft | 426 kts | 50° |
| 2026-05-03 22:13 | 50.93252 | -3.35702 | 19618 ft | 424 kts | 50° |
| 2026-05-03 22:13 | 50.95205 | -3.32231 | 19320 ft | 421 kts | 50° |
| 2026-05-03 22:13 | 50.97153 | -3.28758 | 18988 ft | 420 kts | 50° |
| 2026-05-03 22:14 | 50.99038 | -3.25393 | 18082 ft | 403 kts | 50° |
| 2026-05-03 22:14 | 51.00894 | -3.22072 | 17253 ft | 403 kts | 50° |
| 2026-05-03 22:14 | 51.02751 | -3.18742 | 16678 ft | 402 kts | 50° |
| 2026-05-03 22:14 | 51.04600 | -3.15423 | 16065 ft | 399 kts | 50° |
| 2026-05-03 22:15 | 51.06438 | -3.12123 | 15546 ft | 399 kts | 50° |
| 2026-05-03 22:15 | 51.08278 | -3.08815 | 15153 ft | 398 kts | 50° |
| 2026-05-03 22:15 | 51.10102 | -3.05534 | 14860 ft | 395 kts | 50° |
| 2026-05-03 22:15 | 51.11886 | -3.02282 | 14750 ft | 382 kts | 53° |
| 2026-05-03 22:16 | 51.13299 | -2.98798 | 14676 ft | 364 kts | 65° |
| 2026-05-03 22:16 | 51.14323 | -2.95310 | 14472 ft | 333 kts | 69° |
| 2026-05-03 22:16 | 51.15200 | -2.92026 | 14202 ft | 312 kts | 69° |
| 2026-05-03 22:16 | 51.16025 | -2.88888 | 13842 ft | 307 kts | 70° |
| 2026-05-03 22:17 | 51.16843 | -2.85753 | 13780 ft | 305 kts | 70° |
| 2026-05-03 22:17 | 51.17651 | -2.82645 | 13718 ft | 302 kts | 70° |
| 2026-05-03 22:17 | 51.18451 | -2.79567 | 13648 ft | 300 kts | 70° |
| 2026-05-03 22:17 | 51.19196 | -2.76452 | 13276 ft | 302 kts | 76° |
| 2026-05-03 22:18 | 51.19731 | -2.73190 | 12768 ft | 305 kts | 79° |
| 2026-05-03 22:18 | 51.20202 | -2.69883 | 12260 ft | 308 kts | 79° |
| 2026-05-03 22:18 | 51.20656 | -2.66596 | 11724 ft | 295 kts | 79° |
| 2026-05-03 22:18 | 51.21117 | -2.63498 | 11193 ft | 279 kts | 78° |
| 2026-05-03 22:19 | 51.21569 | -2.60567 | 10684 ft | 266 kts | 78° |
| 2026-05-03 22:19 | 51.22004 | -2.57758 | 10180 ft | 258 kts | 78° |
| 2026-05-03 22:19 | 51.22436 | -2.54945 | 9709 ft | 264 kts | 78° |
| 2026-05-03 22:19 | 51.22873 | -2.52061 | 9205 ft | 271 kts | 78° |
| 2026-05-03 22:20 | 51.23315 | -2.49108 | 8685 ft | 276 kts | 78° |
| 2026-05-03 22:20 | 51.23805 | -2.46197 | 8146 ft | 265 kts | 72° |
| 2026-05-03 22:20 | 51.24444 | -2.43503 | 7619 ft | 257 kts | 69° |
| 2026-05-03 22:20 | 51.25396 | -2.41095 | 7135 ft | 262 kts | 43° |
| 2026-05-03 22:21 | 51.26990 | -2.39651 | 6662 ft | 269 kts | 14° |
| 2026-05-03 22:21 | 51.28848 | -2.39284 | 6183 ft | 267 kts | 2° |
| 2026-05-03 22:21 | 51.30658 | -2.39212 | 5639 ft | 255 kts | 1° |
| 2026-05-03 22:21 | 51.32392 | -2.39191 | 5121 ft | 244 kts | 0° |
| 2026-05-03 22:22 | 51.34055 | -2.39187 | 4620 ft | 234 kts | 0° |
| 2026-05-03 22:22 | 51.35630 | -2.39193 | 4299 ft | 217 kts | 359° |
| 2026-05-03 22:22 | 51.37024 | -2.39664 | 4060 ft | 200 kts | 330° |
| 2026-05-03 22:22 | 51.37934 | -2.41224 | 3782 ft | 191 kts | 298° |
| 2026-05-03 22:23 | 51.38554 | -2.43124 | 3581 ft | 195 kts | 298° |
| 2026-05-03 22:23 | 51.39063 | -2.45109 | 3293 ft | 193 kts | 278° |
| 2026-05-03 22:23 | 51.39125 | -2.47174 | 3106 ft | 190 kts | 272° |
| 2026-05-03 22:23 | 51.39129 | -2.49276 | 3050 ft | 189 kts | 268° |
| 2026-05-03 22:24 | 51.39063 | -2.51392 | 3010 ft | 191 kts | 266° |
| 2026-05-03 22:24 | 51.38981 | -2.53513 | 2764 ft | 190 kts | 266° |
| 2026-05-03 22:24 | 51.38902 | -2.55525 | 2548 ft | 175 kts | 266° |
| 2026-05-03 22:24 | 51.38829 | -2.57410 | 2288 ft | 160 kts | 266° |
| 2026-05-03 22:25 | 51.38764 | -2.59097 | 2092 ft | 144 kts | 266° |
| 2026-05-03 22:25 | 51.38703 | -2.60662 | 1921 ft | 140 kts | 266° |
| 2026-05-03 22:25 | 51.38643 | -2.62201 | 1730 ft | 140 kts | 266° |
| 2026-05-03 22:25 | 51.38587 | -2.63740 | 1485 ft | 137 kts | 267° |
| 2026-05-03 22:26 | 51.38526 | -2.65269 | 1288 ft | 137 kts | 264° |
| 2026-05-03 22:26 | 51.38473 | -2.66779 | 1118 ft | 135 kts | 266° |
| 2026-05-03 22:26 | 51.38408 | -2.68327 | 945 ft | 141 kts | 265° |
| 2026-05-03 22:26 | 51.38347 | -2.69861 | 735 ft | 135 kts | 265° |
| 2026-05-03 22:27 | 51.38291 | -2.71322 | 620 ft | 123 kts | 265° |
| 2026-05-03 22:27 | 51.38246 | -2.72398 | 632 ft | 60 kts | 266° |
| 2026-05-03 22:27 | 51.38230 | -2.72840 | 634 ft | 30 kts | 266° |
| 2026-05-03 22:27 | 51.38217 | -2.73142 | 636 ft | 19 kts | 266° |
| 2026-05-03 22:28 | 51.38228 | -2.73294 | 636 ft | 14 kts | 305° |
| 2026-05-03 22:28 | 51.38327 | -2.73333 | 626 ft | 18 kts | 14° |
| 2026-05-03 22:28 | 51.38388 | -2.73163 | 612 ft | 20 kts | 86° |
| 2026-05-03 22:28 | 51.38398 | -2.72923 | 615 ft | 22 kts | 86° |
| 2026-05-03 22:29 | 51.38406 | -2.72681 | 622 ft | 22 kts | 87° |
| 2026-05-03 22:29 | 51.38414 | -2.72438 | 619 ft | 22 kts | 86° |
| 2026-05-03 22:29 | 51.38425 | -2.72195 | 625 ft | 21 kts | 86° |
| 2026-05-03 22:29 | 51.38432 | -2.72045 | 610 ft | 8 kts | 87° |
| 2026-05-03 22:30 | 51.38432 | -2.71953 | 610 ft | 7 kts | 90° |
| 2026-05-03 22:30 | 51.38432 | -2.71874 | 610 ft | 11 kts | 90° |
| 2026-05-03 22:30 | 51.38434 | -2.71746 | 613 ft | 4 kts | 86° |
| 2026-05-03 22:30 | 51.38438 | -2.71709 | 617 ft | 11 kts | 74° |
| 2026-05-03 22:31 | 51.38482 | -2.71685 | 621 ft | 7 kts | 356° |
| 2026-05-03 22:31 | 51.38523 | -2.71689 | 625 ft | 3 kts | 357° |
| 2026-05-03 22:31 | 51.38534 | -2.71690 | 625 ft | 0 kts | 357° |